createdAt,value
2022-11-02T00:00:47.245Z,0.90
2022-11-02T00:03:15.502Z,0.52
2022-11-02T00:05:43.547Z,1.13
2022-11-02T00:08:12.236Z,0.70
2022-11-02T00:10:40.525Z,0.85
2022-11-02T00:13:08.253Z,0.95
2022-11-02T00:15:37.197Z,0.77
2022-11-02T00:18:08.659Z,0.80
2022-11-02T00:20:38.926Z,1.05
2022-11-02T00:23:07.951Z,1.23
2022-11-02T00:25:37.778Z,0.95
2022-11-02T00:28:05.615Z,0.90
2022-11-02T00:30:33.382Z,0.90
2022-11-02T00:33:01.492Z,1.33
2022-11-02T00:35:29.644Z,0.90
2022-11-02T00:37:57.953Z,1.55
2022-11-02T00:40:25.808Z,1.00
2022-11-02T00:42:53.885Z,1.33
2022-11-02T00:45:23.016Z,1.20
2022-11-02T00:47:52.174Z,1.20
2022-11-02T00:50:20.512Z,0.93
2022-11-02T00:52:48.402Z,1.10
2022-11-02T00:55:18.303Z,1.15
2022-11-02T00:57:46.620Z,1.10
2022-11-02T01:00:15.456Z,1.10
2022-11-02T01:02:43.568Z,1.20
2022-11-02T01:05:12.120Z,1.10
2022-11-02T01:07:41.205Z,1.38
2022-11-02T01:10:10.516Z,0.90
2022-11-02T01:12:40.210Z,1.20
2022-11-02T01:15:10.704Z,0.90
2022-11-02T01:17:39.353Z,0.55
2022-11-02T01:20:08.483Z,1.52
2022-11-02T01:22:37.140Z,0.88
2022-11-02T01:25:05.907Z,1.05
2022-11-02T01:27:33.827Z,0.90
2022-11-02T01:30:01.844Z,1.05
2022-11-02T01:32:32.642Z,0.60
2022-11-02T01:35:00.406Z,0.80
2022-11-02T01:37:28.230Z,1.13
2022-11-02T01:39:56.069Z,0.60
2022-11-02T01:42:25.567Z,0.95
2022-11-02T01:44:53.685Z,1.30
2022-11-02T01:47:39.299Z,0.65
2022-11-02T01:50:31.351Z,0.52
2022-11-02T01:52:59.285Z,1.15
2022-11-02T01:55:29.848Z,0.88
2022-11-02T01:58:05.364Z,0.83
2022-11-02T02:00:33.823Z,1.00
2022-11-02T02:03:21.560Z,1.30
2022-11-02T02:06:12.662Z,0.90
2022-11-02T02:08:43.901Z,1.00
2022-11-02T02:11:38.093Z,0.98
2022-11-02T02:14:07.730Z,1.15
2022-11-02T02:16:55.297Z,1.02
2022-11-02T02:19:39.626Z,0.90
2022-11-02T02:22:44.878Z,1.40
2022-11-02T02:25:27.833Z,0.90
2022-11-02T02:28:29.713Z,1.10
2022-11-02T02:31:09.402Z,0.90
2022-11-02T02:33:46.258Z,1.45
2022-11-02T02:36:30.598Z,0.77
2022-11-02T02:39:32.467Z,1.05
2022-11-02T02:44:59.729Z,1.42
2022-11-02T02:47:30.696Z,0.70
2022-11-02T02:50:12.611Z,1.10
2022-11-02T02:52:41.331Z,1.30
2022-11-02T02:55:14.303Z,1.30
2022-11-02T02:57:42.641Z,0.85
2022-11-02T03:00:16.775Z,1.02
2022-11-02T03:03:01.412Z,0.95
2022-11-02T03:05:32.007Z,0.90
2022-11-02T03:08:13.450Z,1.02
2022-11-02T03:11:03.170Z,0.63
2022-11-02T03:14:20.498Z,0.98
2022-11-02T03:17:18.597Z,0.70
2022-11-02T03:20:08.478Z,1.08
2022-11-02T03:23:00.617Z,0.70
2022-11-02T03:26:04.051Z,0.60
2022-11-02T03:28:52.558Z,0.63
2022-11-02T03:31:32.815Z,0.80
2022-11-02T03:34:27.351Z,0.85
2022-11-02T03:37:12.218Z,1.02
2022-11-02T03:39:44.050Z,1.05
2022-11-02T03:42:16.568Z,1.23
2022-11-02T03:44:46.304Z,1.00
2022-11-02T03:47:16.168Z,0.70
2022-11-02T03:49:45.271Z,0.88
2022-11-02T03:52:18.847Z,1.00
2022-11-02T03:55:06.541Z,0.65
2022-11-02T03:57:45.506Z,0.90
2022-11-02T04:00:18.221Z,0.60
2022-11-02T04:02:57.916Z,0.77
2022-11-02T04:05:35.776Z,0.93
2022-11-02T04:08:47.283Z,0.80
2022-11-02T04:11:35.156Z,1.20
2022-11-02T04:14:27.464Z,0.60
2022-11-02T04:17:16.378Z,0.88
2022-11-02T04:19:51.124Z,0.73
2022-11-02T04:22:39.661Z,0.95
2022-11-02T04:25:16.088Z,1.05
2022-11-02T04:27:53.635Z,1.02
2022-11-02T04:30:27.347Z,0.90
2022-11-02T04:33:15.513Z,0.73
2022-11-02T04:36:09.233Z,0.88
2022-11-02T04:38:41.959Z,1.10
2022-11-02T04:41:42.204Z,1.23
2022-11-02T04:44:36.439Z,0.93
2022-11-02T04:47:14.768Z,1.52
2022-11-02T04:49:42.582Z,0.70
2022-11-02T04:52:14.913Z,1.23
2022-11-02T04:54:47.882Z,1.27
2022-11-02T04:57:15.651Z,1.00
2022-11-02T04:59:44.907Z,0.93
2022-11-02T05:02:12.972Z,0.88
2022-11-02T05:04:42.520Z,1.17
2022-11-02T05:07:12.193Z,0.98
2022-11-02T05:09:42.650Z,0.63
2022-11-02T05:12:11.904Z,0.90
2022-11-02T05:14:40.320Z,0.85
2022-11-02T05:17:08.748Z,1.00
2022-11-02T05:19:38.513Z,1.17
2022-11-02T05:22:06.696Z,0.70
2022-11-02T05:24:35.325Z,1.02
2022-11-02T05:27:03.601Z,1.02
2022-11-02T05:29:35.033Z,0.70
2022-11-02T05:32:02.949Z,0.68
2022-11-02T05:34:31.113Z,1.00
2022-11-02T05:37:00.197Z,0.88
2022-11-02T05:39:28.638Z,0.75
2022-11-02T05:41:57.499Z,0.90
2022-11-02T05:44:25.349Z,1.10
2022-11-02T05:46:54.046Z,1.00
2022-11-02T05:49:22.130Z,0.68
2022-11-02T05:51:49.847Z,1.00
2022-11-02T05:54:17.917Z,1.60
2022-11-02T05:56:45.859Z,0.95
2022-11-02T05:59:13.929Z,1.17
2022-11-02T06:01:41.965Z,1.02
2022-11-02T06:04:09.937Z,0.82
2022-11-02T06:06:38.018Z,1.17
2022-11-02T06:09:07.447Z,0.98
2022-11-02T06:11:35.953Z,1.15
2022-11-02T06:14:04.100Z,0.90
2022-11-02T06:16:32.115Z,1.15
2022-11-02T06:19:00.064Z,1.08
2022-11-02T06:21:28.088Z,1.00
2022-11-02T06:23:55.899Z,1.10
2022-11-02T06:26:23.879Z,1.05
2022-11-02T06:28:51.783Z,1.20
2022-11-02T06:31:19.922Z,1.13
2022-11-02T06:33:48.101Z,0.88
2022-11-02T06:36:16.064Z,0.73
2022-11-02T06:38:44.444Z,0.82
2022-11-02T06:41:12.383Z,0.88
2022-11-02T06:43:41.167Z,2.03
2022-11-02T06:46:09.615Z,0.95
2022-11-02T06:48:37.716Z,0.80
2022-11-02T06:51:06.748Z,1.00
2022-11-02T06:53:34.747Z,1.10
2022-11-02T06:56:02.696Z,1.05
2022-11-02T06:58:30.900Z,1.10
2022-11-02T07:01:05.107Z,1.08
2022-11-02T07:03:33.241Z,1.05
2022-11-02T07:06:01.486Z,1.27
2022-11-02T07:08:29.961Z,1.35
2022-11-02T07:10:59.536Z,0.90
2022-11-02T07:13:29.964Z,1.38
2022-11-02T07:15:57.811Z,0.93
2022-11-02T07:18:26.289Z,0.90
2022-11-02T07:20:54.185Z,0.90
2022-11-02T07:23:24.222Z,0.90
2022-11-02T07:25:52.208Z,0.75
2022-11-02T07:28:20.358Z,0.85
2022-11-02T07:30:48.265Z,0.57
2022-11-02T07:33:15.957Z,1.00
2022-11-02T07:35:44.143Z,1.13
2022-11-02T07:38:12.274Z,1.00
2022-11-02T07:40:40.137Z,1.15
2022-11-02T07:43:08.456Z,0.95
2022-11-02T07:45:56.611Z,0.75
2022-11-02T07:48:24.613Z,0.98
2022-11-02T07:50:52.504Z,1.00
2022-11-02T07:53:20.430Z,0.90
2022-11-02T07:55:48.354Z,0.80
2022-11-02T07:58:16.393Z,2.35
2022-11-02T08:00:44.220Z,1.42
2022-11-02T08:03:12.766Z,0.65
2022-11-02T08:05:43.308Z,0.52
2022-11-02T08:08:17.452Z,0.90
2022-11-02T08:10:47.206Z,0.82
2022-11-02T08:13:17.349Z,0.93
2022-11-02T08:15:45.235Z,0.75
2022-11-02T08:18:18.645Z,0.55
2022-11-02T08:20:46.994Z,1.20
2022-11-02T08:23:19.362Z,0.80
2022-11-02T08:25:48.890Z,0.90
2022-11-02T08:28:28.694Z,1.48
2022-11-02T08:30:56.397Z,0.98
2022-11-02T08:33:24.415Z,1.17
2022-11-02T08:35:53.469Z,1.10
2022-11-02T08:38:24.453Z,1.00
2022-11-02T08:40:52.264Z,1.20
2022-11-02T08:43:20.182Z,1.10
2022-11-02T08:46:13.775Z,1.00
2022-11-02T08:48:36.522Z,1.67
2022-11-02T08:51:05.854Z,1.05
2022-11-02T08:53:33.873Z,1.45
2022-11-02T08:56:01.829Z,2.20
2022-11-02T08:58:29.704Z,1.27
2022-11-02T09:00:57.835Z,1.35
2022-11-02T09:03:27.128Z,1.45
2022-11-02T09:06:02.669Z,1.27
2022-11-02T09:08:30.876Z,0.80
2022-11-02T09:11:01.504Z,1.45
2022-11-02T09:13:29.715Z,1.38
2022-11-02T09:15:59.367Z,0.90
2022-11-02T09:18:27.647Z,1.15
2022-11-02T09:20:55.436Z,1.40
2022-11-02T09:23:23.697Z,1.33
2022-11-02T09:25:51.492Z,1.50
2022-11-02T09:28:20.053Z,1.23
2022-11-02T09:30:47.849Z,1.73
2022-11-02T09:33:16.087Z,1.33
2022-11-02T09:35:46.312Z,1.08
2022-11-02T09:38:15.114Z,1.00
2022-11-02T09:40:47.391Z,0.88
2022-11-02T09:43:18.231Z,1.63
2022-11-02T09:46:10.365Z,1.92
2022-11-02T09:48:46.062Z,1.40
2022-11-02T09:51:15.205Z,1.40
2022-11-02T09:53:55.035Z,1.35
2022-11-02T09:56:22.788Z,1.17
2022-11-02T09:59:17.639Z,0.85
2022-11-02T10:02:14.452Z,1.38
2022-11-02T10:05:07.978Z,1.30
2022-11-02T10:07:39.602Z,0.95
2022-11-02T10:10:22.751Z,1.33
2022-11-02T10:13:31.967Z,1.13
2022-11-02T10:16:24.939Z,1.00
2022-11-02T10:18:54.524Z,1.25
2022-11-02T10:21:33.197Z,1.25
2022-11-02T10:24:07.945Z,1.00
2022-11-02T10:26:37.369Z,1.23
2022-11-02T10:29:17.146Z,1.33
2022-11-02T10:31:45.043Z,0.90
2022-11-02T10:34:28.778Z,0.80
2022-11-02T10:37:15.139Z,0.88
2022-11-02T10:39:54.951Z,1.20
2022-11-02T10:42:59.809Z,1.10
2022-11-02T10:45:44.545Z,0.80
2022-11-02T10:48:44.451Z,0.90
2022-11-02T10:51:13.839Z,1.05
2022-11-02T10:53:46.754Z,1.20
2022-11-02T10:56:22.376Z,1.05
2022-11-02T10:59:16.015Z,0.85
2022-11-02T11:02:04.217Z,0.77
2022-11-02T11:04:33.856Z,0.70
2022-11-02T11:07:26.627Z,1.17
2022-11-02T11:09:58.559Z,1.38
2022-11-02T11:12:34.643Z,1.00
2022-11-02T11:20:42.945Z,0.63
2022-11-02T11:23:21.192Z,0.85
2022-11-02T11:25:57.669Z,0.90
2022-11-02T11:28:42.587Z,0.88
2022-11-02T11:31:16.804Z,1.10
2022-11-02T11:34:00.433Z,1.25
2022-11-02T11:36:37.540Z,1.20
2022-11-02T11:39:23.631Z,0.85
2022-11-02T11:41:52.108Z,1.50
2022-11-02T11:44:20.536Z,0.80
2022-11-02T11:46:53.802Z,0.90
2022-11-02T11:50:03.051Z,0.68
2022-11-02T11:52:31.957Z,1.20
2022-11-02T11:55:24.040Z,1.38
2022-11-02T11:58:13.738Z,1.00
2022-11-02T12:00:41.643Z,1.08
2022-11-02T12:03:11.979Z,1.40
2022-11-02T12:05:50.754Z,0.90
2022-11-02T12:08:27.781Z,1.23
2022-11-02T12:11:18.607Z,1.00
2022-11-02T12:14:10.916Z,1.35
2022-11-02T12:17:10.164Z,1.20
2022-11-02T12:20:05.086Z,1.50
2022-11-02T12:22:56.623Z,0.88
2022-11-02T12:25:46.320Z,1.67
2022-11-02T12:28:53.331Z,0.98
2022-11-02T12:32:00.769Z,1.08
2022-11-02T12:34:52.906Z,1.10
2022-11-02T12:37:38.995Z,0.90
2022-11-02T12:40:15.007Z,0.98
2022-11-02T12:42:49.656Z,0.90
2022-11-02T12:45:34.743Z,0.98
2022-11-02T12:48:06.183Z,0.63
2022-11-02T12:50:57.762Z,0.90
2022-11-02T12:53:46.912Z,1.30
2022-11-02T12:56:20.190Z,1.00
2022-11-02T12:58:48.517Z,1.13
2022-11-02T13:01:35.898Z,1.13
2022-11-02T13:04:30.352Z,1.60
2022-11-02T13:07:09.723Z,0.88
2022-11-02T13:09:41.078Z,0.90
2022-11-02T13:12:13.639Z,1.10
2022-11-02T13:14:50.408Z,0.80
2022-11-02T13:17:48.398Z,0.80
2022-11-02T13:20:26.631Z,0.80
2022-11-02T13:23:27.470Z,1.60
2022-11-02T13:28:30.651Z,1.52
2022-11-02T13:30:59.103Z,1.23
2022-11-02T13:33:34.812Z,1.05
2022-11-02T13:36:02.631Z,1.10
2022-11-02T13:38:34.067Z,1.05
2022-11-02T13:41:04.598Z,0.82
2022-11-02T13:43:38.007Z,1.00
2022-11-02T13:46:29.925Z,0.90
2022-11-02T13:48:59.588Z,0.90
2022-11-02T13:51:36.836Z,0.70
2022-11-02T13:54:15.514Z,0.70
2022-11-02T13:56:43.871Z,0.90
2022-11-02T13:59:22.103Z,1.17
2022-11-02T14:01:53.230Z,1.00
2022-11-02T14:04:22.017Z,0.85
2022-11-02T14:06:53.078Z,0.70
2022-11-02T14:09:42.637Z,1.05
2022-11-02T14:12:39.990Z,1.10
2022-11-02T14:15:13.984Z,1.10
2022-11-02T14:17:55.107Z,1.10
2022-11-02T14:20:36.055Z,1.10
2022-11-02T14:25:49.976Z,0.90
2022-11-02T14:28:23.759Z,1.05
2022-11-02T14:31:07.135Z,1.35
2022-11-02T14:34:08.743Z,1.10
2022-11-02T14:36:44.399Z,0.75
2022-11-02T14:39:23.426Z,1.40
2022-11-02T14:42:22.574Z,0.80
2022-11-02T14:45:08.774Z,0.90
2022-11-02T14:47:38.794Z,1.00
2022-11-02T14:50:19.452Z,0.93
2022-11-02T14:53:08.933Z,0.80
2022-11-02T14:55:37.943Z,0.60
2022-11-02T14:58:18.619Z,0.75
2022-11-02T15:00:50.072Z,0.93
2022-11-02T15:03:29.523Z,0.80
2022-11-02T15:06:03.939Z,0.63
2022-11-02T15:08:52.789Z,1.42
2022-11-02T15:11:42.315Z,1.33
2022-11-02T15:14:42.834Z,0.57
2022-11-02T15:17:13.786Z,0.80
2022-11-02T15:22:33.046Z,0.90
2022-11-02T15:25:20.765Z,0.75
2022-11-02T15:27:50.246Z,0.63
2022-11-02T15:30:23.856Z,0.70
2022-11-02T15:33:07.463Z,0.57
2022-11-02T15:35:40.068Z,0.80
2022-11-02T15:38:17.509Z,0.52
2022-11-02T15:40:50.691Z,0.98
2022-11-02T15:43:52.605Z,0.50
2022-11-02T15:46:39.178Z,0.77
2022-11-02T15:49:23.833Z,1.02
2022-11-02T15:52:04.459Z,0.57
2022-11-02T15:54:46.277Z,1.08
2022-11-02T15:57:36.144Z,0.77
2022-11-02T16:00:11.853Z,0.98
2022-11-02T16:02:53.880Z,0.82
2022-11-02T16:05:26.940Z,0.75
2022-11-02T16:08:10.537Z,0.80
2022-11-02T16:10:39.200Z,0.82
2022-11-02T16:13:48.867Z,1.20
2022-11-02T16:16:24.853Z,0.70
2022-11-02T16:18:58.533Z,0.88
2022-11-02T16:21:30.258Z,0.63
2022-11-02T16:23:59.686Z,0.70
2022-11-02T16:26:29.993Z,0.70
2022-11-02T16:28:59.371Z,0.70
2022-11-02T16:31:31.490Z,0.82
2022-11-02T16:34:04.888Z,1.25
2022-11-02T16:36:36.883Z,1.05
2022-11-02T16:39:28.449Z,1.60
2022-11-02T16:41:58.499Z,1.95
2022-11-02T16:44:29.689Z,2.85
2022-11-02T16:47:17.745Z,1.88
2022-11-02T16:49:51.623Z,1.98
2022-11-02T16:52:33.984Z,2.38
2022-11-02T16:55:02.533Z,1.90
2022-11-02T16:57:41.811Z,3.00
2022-11-02T17:00:20.342Z,2.72
2022-11-02T17:02:48.769Z,2.33
2022-11-02T17:05:26.968Z,2.08
2022-11-02T17:08:05.627Z,1.48
2022-11-02T17:10:34.916Z,1.70
2022-11-02T17:13:04.042Z,1.45
2022-11-02T17:15:35.123Z,1.50
2022-11-02T17:18:23.298Z,0.90
2022-11-02T17:21:14.030Z,0.90
2022-11-02T17:23:44.031Z,1.05
2022-11-02T17:26:26.864Z,1.20
2022-11-02T17:28:56.560Z,1.65
2022-11-02T17:31:36.449Z,1.63
2022-11-02T17:34:16.028Z,1.30
2022-11-02T17:36:45.354Z,1.27
2022-11-02T17:39:21.173Z,1.20
2022-11-02T17:42:12.603Z,1.30
2022-11-02T17:44:41.679Z,1.13
2022-11-02T17:47:13.997Z,1.40
2022-11-02T17:49:41.789Z,1.35
2022-11-02T17:52:14.097Z,1.35
2022-11-02T17:54:41.891Z,1.30
2022-11-02T17:57:13.663Z,1.30
2022-11-02T17:59:42.257Z,1.08
2022-11-02T18:02:13.619Z,1.00
2022-11-02T18:04:41.559Z,1.20
2022-11-02T18:07:09.497Z,1.02
2022-11-02T18:09:37.354Z,1.40
2022-11-02T18:12:05.649Z,1.20
2022-11-02T18:14:33.840Z,1.60
2022-11-02T18:17:02.131Z,1.25
2022-11-02T18:19:32.779Z,1.00
2022-11-02T18:22:01.331Z,1.23
2022-11-02T18:24:29.639Z,1.10
2022-11-02T18:26:57.617Z,1.20
2022-11-02T18:29:25.596Z,0.90
2022-11-02T18:31:53.604Z,1.38
2022-11-02T18:34:21.978Z,1.05
2022-11-02T18:36:50.141Z,1.10
2022-11-02T18:39:18.103Z,1.15
2022-11-02T18:41:46.267Z,1.08
2022-11-02T18:44:15.623Z,1.38
2022-11-02T18:46:44.044Z,1.02
2022-11-02T18:49:11.909Z,1.15
2022-11-02T18:51:43.276Z,1.40
2022-11-02T18:54:11.665Z,1.33
2022-11-02T18:56:39.531Z,1.15
2022-11-02T18:59:07.341Z,1.20
2022-11-02T19:01:35.326Z,1.20
2022-11-02T19:04:03.227Z,1.20
2022-11-02T19:06:56.055Z,1.00
2022-11-02T19:09:25.570Z,1.30
2022-11-02T19:12:29.475Z,1.10
2022-11-02T19:14:57.509Z,1.25
2022-11-02T19:17:26.379Z,1.52
2022-11-02T19:19:54.798Z,1.30
2022-11-02T19:22:24.811Z,1.70
2022-11-02T19:24:52.884Z,1.60
2022-11-02T19:27:25.641Z,1.33
2022-11-02T19:29:53.574Z,1.92
2022-11-02T19:32:22.016Z,1.88
2022-11-02T19:34:50.584Z,1.60
2022-11-02T19:37:19.407Z,1.60
2022-11-02T19:39:47.316Z,1.48
2022-11-02T19:42:15.195Z,1.83
2022-11-02T19:44:43.102Z,1.60
2022-11-02T19:47:11.209Z,1.83
2022-11-02T19:49:39.239Z,1.60
2022-11-02T19:52:07.019Z,1.40
2022-11-02T19:54:34.668Z,1.98
2022-11-02T19:57:02.431Z,1.45
2022-11-02T19:59:30.687Z,2.05
2022-11-02T20:01:58.555Z,1.80
2022-11-02T20:04:26.614Z,1.83
2022-11-02T20:06:54.366Z,1.88
2022-11-02T20:09:22.189Z,1.63
2022-11-02T20:11:49.989Z,1.67
2022-11-02T20:14:18.228Z,1.88
2022-11-02T20:16:58.311Z,2.05
2022-11-02T20:19:32.524Z,2.00
2022-11-02T20:22:00.259Z,1.90
2022-11-02T20:24:28.229Z,1.70
2022-11-02T20:27:02.781Z,1.85
2022-11-02T20:29:30.567Z,1.65
2022-11-02T20:31:58.481Z,1.65
2022-11-02T20:34:26.506Z,1.42
2022-11-02T20:36:54.269Z,1.73
2022-11-02T20:39:22.371Z,1.67
2022-11-02T20:41:56.066Z,1.90
2022-11-02T20:44:24.219Z,1.10
2022-11-02T20:46:53.468Z,1.50
2022-11-02T20:49:44.270Z,1.50
2022-11-02T20:52:10.493Z,1.60
2022-11-02T20:54:38.123Z,1.50
2022-11-02T20:57:06.067Z,1.60
2022-11-02T20:59:33.701Z,1.90
2022-11-02T21:02:01.455Z,2.03
2022-11-02T21:04:29.211Z,1.70
2022-11-02T21:06:57.088Z,1.92
2022-11-02T21:09:25.420Z,1.30
2022-11-02T21:12:11.545Z,1.52
2022-11-02T21:14:39.167Z,1.23
2022-11-02T21:17:07.916Z,2.13
2022-11-02T21:19:35.793Z,1.40
2022-11-02T21:22:03.501Z,2.53
2022-11-02T21:24:31.267Z,1.40
2022-11-02T21:26:58.883Z,1.38
2022-11-02T21:29:26.575Z,1.10
2022-11-02T21:31:54.362Z,1.10
2022-11-02T21:34:22.064Z,1.27
2022-11-02T21:36:49.798Z,1.20
2022-11-02T21:39:17.898Z,2.03
2022-11-02T21:41:45.550Z,1.70
2022-11-02T21:44:13.251Z,1.50
2022-11-02T21:46:41.281Z,1.83
2022-11-02T21:49:09.210Z,1.50
2022-11-02T21:51:38.650Z,1.65
2022-11-02T21:54:06.543Z,2.03
2022-11-02T21:56:36.020Z,2.22
2022-11-02T21:59:05.380Z,2.65
2022-11-02T22:01:50.275Z,2.30
2022-11-02T22:04:25.095Z,2.00
2022-11-02T22:06:55.820Z,2.63
2022-11-02T22:09:23.721Z,2.20
2022-11-02T22:12:10.501Z,2.10
2022-11-02T22:14:38.837Z,1.92
2022-11-02T22:17:16.265Z,2.05
2022-11-02T22:19:51.084Z,1.40
2022-11-02T22:22:19.502Z,1.73
2022-11-02T22:24:47.802Z,1.63
2022-11-02T22:27:16.940Z,1.42
2022-11-02T22:29:44.565Z,1.63
2022-11-02T22:32:14.288Z,1.35
2022-11-02T22:34:43.648Z,1.30
2022-11-02T22:37:31.785Z,1.30
2022-11-02T22:39:59.538Z,1.45
2022-11-02T22:42:27.245Z,1.23
2022-11-02T22:44:58.546Z,1.58
2022-11-02T22:47:26.386Z,1.50
2022-11-02T22:49:54.258Z,1.45
2022-11-02T22:52:22.061Z,1.20
2022-11-02T22:54:49.926Z,1.00
2022-11-02T22:57:17.658Z,1.05
2022-11-02T22:59:45.271Z,1.25
2022-11-02T23:02:13.002Z,1.27
2022-11-02T23:04:40.722Z,1.25
2022-11-02T23:07:08.335Z,1.42
2022-11-02T23:09:39.171Z,1.20
2022-11-02T23:12:07.025Z,1.30
2022-11-02T23:14:34.613Z,1.30
2022-11-02T23:17:02.334Z,1.15
2022-11-02T23:19:30.309Z,1.08
2022-11-02T23:22:29.315Z,1.27
2022-11-02T23:25:11.376Z,1.25
2022-11-02T23:27:59.726Z,2.03
2022-11-02T23:30:54.006Z,1.13
2022-11-02T23:33:23.045Z,1.20
2022-11-02T23:36:09.636Z,1.35
2022-11-02T23:38:56.857Z,1.20
2022-11-02T23:41:25.024Z,1.38
2022-11-02T23:44:11.925Z,1.10
2022-11-02T23:46:44.176Z,1.02
2022-11-02T23:49:12.701Z,0.90
2022-11-02T23:51:58.757Z,1.38
2022-11-02T23:54:45.119Z,1.95
2022-11-02T23:57:13.413Z,1.70
2022-11-02T23:59:41.259Z,1.55
